Wetterverlauf

Letzte Wetterlage 20.10.2014 22:55
Wetterdiagramm
Tabellarische Darstellung
Datum Temperatur Windchill Feuchte Luftdruck Windrichtung Windstärke Niederschlag
20.10.2014 22:55 14,1 °C 12,8 °C 85 % 1015,2 hPa 23 2.4 0,00 mm
20.10.2014 22:45 14,1 °C 12,3 °C 85 % 1015,3 hPa 45 2.7 0,00 mm
20.10.2014 22:35 14,0 °C 14,0 °C 85 % 1015,5 hPa 315 2.0 0,00 mm
20.10.2014 22:25 13,9 °C 13,9 °C 86 % 1015,4 hPa 315 2.0 0,00 mm
20.10.2014 22:15 13,8 °C 11,9 °C 86 % 1015,3 hPa 270 2.7 0,00 mm
20.10.2014 22:05 13,9 °C 12,6 °C 86 % 1015,6 hPa 270 2.4 0,00 mm
20.10.2014 22:00 13,9 °C 12,6 °C 86 % 1015,5 hPa 270 2.4 0,00 mm
20.10.2014 21:55 14,0 °C 14,0 °C 85 % 1015,6 hPa 225 2.0 0,00 mm
20.10.2014 21:45 14,1 °C 14,1 °C 85 % 1015,6 hPa 315 1.4 0,00 mm
20.10.2014 21:35 14,2 °C 11,3 °C 84 % 1015,6 hPa 225 3.4 0,00 mm
20.10.2014 21:25 14,4 °C 11,9 °C 84 % 1015,7 hPa 315 3.1 0,00 mm
20.10.2014 21:15 14,4 °C 14,4 °C 83 % 1015,7 hPa 270 1.7 0,00 mm
20.10.2014 21:05 14,5 °C 14,5 °C 83 % 1015,8 hPa 90 2.0 0,00 mm
20.10.2014 20:55 14,6 °C 12,2 °C 84 % 1015,6 hPa 225 3.1 0,00 mm
20.10.2014 20:45 14,6 °C 14,6 °C 84 % 1015,6 hPa 315 1.7 0,00 mm
20.10.2014 20:35 14,5 °C 14,5 °C 84 % 1015,6 hPa 180 2.0 0,00 mm
20.10.2014 20:25 14,4 °C 12,6 °C 85 % 1015,7 hPa 225 2.7 0,00 mm
20.10.2014 20:15 14,2 °C 14,2 °C 85 % 1015,9 hPa 270 1.7 0,00 mm
20.10.2014 20:05 14,1 °C 14,1 °C 84 % 1015,8 hPa 45 2.0 0,00 mm
20.10.2014 19:55 14,1 °C 14,1 °C 84 % 1016,0 hPa 225 1.0 0,00 mm
20.10.2014 19:45 14,2 °C 14,2 °C 84 % 1016,0 hPa 180 2.0 0,00 mm
20.10.2014 19:35 14,3 °C 14,3 °C 84 % 1016,1 hPa 180 1.0 0,00 mm
20.10.2014 19:25 14,4 °C 14,4 °C 83 % 1016,1 hPa 225 0.7 0,00 mm
20.10.2014 19:15 14,5 °C 14,5 °C 83 % 1016,0 hPa 225 1.4 0,00 mm
20.10.2014 19:05 14,7 °C 14,7 °C 83 % 1016,0 hPa 225 1.4 0,00 mm
Empfehlen Sie wetter.com
| Mehr
Neue Wetterwarnung

Neue Niederschlagsmeldung
Neue Meldung
Regen Liveticker
    sehr starker Regen/Gewitter
    starker Regen/Gewitter
    mäßiger bis starker Regen
    mäßiger Regen
    leichter bis mäßiger Regen
    kein Regen